Time;durP1;ratioP1;P1;durP2;ratioP2;P2;SDS_P1;SDS_P2;PMS_P1;PMS_P2;Temp;Humidity;BMP_temperature;BMP_pressure;BME280_temperature;BME280_humidity;BME280_pressure;Samples;Min_cycle;Max_cycle;Signal;HPM_P1;HPM_P2
2023/11/16 00:00:39;;;;;;;3.50;1.97;;;;;;;11.15;98.24;98408.50;4159771;28;20683;-86
2023/11/16 00:02:43;;;;;;;5.27;2.40;;;;;;;11.15;99.52;98416.34;4169636;28;20663;-85
2023/11/16 00:04:48;;;;;;;4.20;2.00;;;;;;;11.15;99.50;98411.94;4159000;28;20624;-85
2023/11/16 00:06:54;;;;;;;7.27;2.50;;;;;;;11.12;98.42;98419.97;4169548;28;20648;-85
2023/11/16 00:08:56;;;;;;;6.73;2.13;;;;;;;11.12;98.37;98419.97;4169256;28;21065;-85
2023/11/16 00:11:00;;;;;;;4.73;2.30;;;;;;;11.12;97.90;98427.00;4159587;28;20610;-85
2023/11/16 00:13:03;;;;;;;4.70;2.10;;;;;;;11.13;98.36;98429.50;4174839;28;20628;-86
2023/11/16 00:15:08;;;;;;;3.13;1.90;;;;;;;11.12;99.22;98417.38;4167409;28;20640;-85
2023/11/16 00:17:11;;;;;;;5.07;2.17;;;;;;;11.13;99.83;98419.06;4166080;28;20632;-84
2023/11/16 00:19:18;;;;;;;7.80;3.00;;;;;;;11.12;100.00;98422.59;4154688;28;20675;-85
2023/11/16 00:21:22;;;;;;;3.80;2.00;;;;;;;11.10;98.88;98416.66;4182303;28;20708;-85
2023/11/16 00:23:27;;;;;;;4.73;1.87;;;;;;;11.07;99.09;98422.06;4174090;28;20619;-85
2023/11/16 00:25:31;;;;;;;4.23;2.17;;;;;;;11.05;98.60;98404.81;4167045;28;20657;-84
2023/11/16 00:27:35;;;;;;;5.10;2.00;;;;;;;11.06;99.82;98406.50;4187355;28;21212;-85
2023/11/16 00:29:39;;;;;;;3.50;2.10;;;;;;;11.05;99.64;98410.91;4171803;28;20691;-85
2023/11/16 00:31:42;;;;;;;9.63;2.67;;;;;;;11.03;99.00;98411.91;4172863;28;20655;-85
2023/11/16 00:33:45;;;;;;;5.57;2.30;;;;;;;11.03;98.68;98402.31;4184528;28;20623;-85
2023/11/16 00:35:49;;;;;;;5.30;2.80;;;;;;;11.00;98.82;98402.50;4172496;28;20628;-85
2023/11/16 00:37:55;;;;;;;5.93;2.63;;;;;;;10.98;99.22;98408.78;4175133;28;20730;-85
2023/11/16 00:39:57;;;;;;;5.57;2.13;;;;;;;10.98;98.87;98408.78;4168188;28;20628;-85
2023/11/16 00:42:02;;;;;;;3.90;1.90;;;;;;;10.98;98.93;98408.78;4157599;28;20634;-86
2023/11/16 00:44:05;;;;;;;5.77;2.70;;;;;;;10.98;98.48;98404.38;4173320;28;21073;-85
2023/11/16 00:46:11;;;;;;;3.63;2.00;;;;;;;10.97;99.55;98402.69;4177180;28;20656;-85
2023/11/16 00:48:16;;;;;;;8.17;2.73;;;;;;;10.98;99.21;98407.00;4184486;28;20672;-85
2023/11/16 00:50:19;;;;;;;5.40;2.80;;;;;;;10.97;98.79;98396.66;4155759;28;20712;-85
2023/11/16 00:52:24;;;;;;;5.63;2.30;;;;;;;10.94;98.62;98402.06;4170069;28;20640;-85
2023/11/16 00:54:29;;;;;;;2.87;2.10;;;;;;;10.90;99.02;98398.00;4173502;28;20987;-85
2023/11/16 00:56:32;;;;;;;4.17;2.53;;;;;;;10.90;98.86;98403.22;4168047;28;20641;-84
2023/11/16 00:58:35;;;;;;;4.60;2.27;;;;;;;10.91;99.17;98400.50;4176439;28;20636;-85
2023/11/16 01:00:39;;;;;;;5.47;2.40;;;;;;;10.92;98.03;98394.34;4172079;28;20627;-85
2023/11/16 01:02:42;;;;;;;3.33;2.30;;;;;;;10.90;98.05;98391.00;4189590;28;21043;-86
2023/11/16 01:04:47;;;;;;;4.63;2.03;;;;;;;10.85;98.42;98390.47;4166623;28;20713;-85
2023/11/16 01:06:50;;;;;;;3.50;2.10;;;;;;;10.75;97.81;98387.69;4157036;28;20654;-85
2023/11/16 01:08:53;;;;;;;5.47;2.57;;;;;;;10.67;98.57;98382.16;4169351;28;20613;-84
2023/11/16 01:11:02;;;;;;;6.70;2.23;;;;;;;10.53;98.00;98371.78;4158404;28;20632;-85
2023/11/16 01:13:07;;;;;;;3.60;1.90;;;;;;;10.43;99.04;98388.91;4157504;28;21032;-85
2023/11/16 01:15:13;;;;;;;3.70;1.80;;;;;;;10.32;99.25;98378.34;4168064;28;21178;-85
2023/11/16 01:17:22;;;;;;;6.13;2.17;;;;;;;10.22;99.62;98379.00;4158622;28;20621;-85
2023/11/16 01:19:26;;;;;;;6.43;2.17;;;;;;;10.19;99.74;98376.59;4156855;28;20629;-85
2023/11/16 01:21:30;;;;;;;2.40;1.50;;;;;;;10.17;99.60;98381.88;4152818;28;20693;-85
2023/11/16 01:23:34;;;;;;;3.80;1.80;;;;;;;10.19;99.76;98384.41;4173376;28;20624;-87
2023/11/16 01:25:40;;;;;;;2.63;1.80;;;;;;;10.20;100.00;98376.50;4168052;28;21214;-86
2023/11/16 01:27:50;;;;;;;4.40;2.00;;;;;;;10.21;100.00;98374.72;4156713;28;20652;-85
2023/11/16 01:29:54;;;;;;;6.43;2.27;;;;;;;10.23;100.00;98372.88;4179249;28;20757;-85
2023/11/16 01:31:57;;;;;;;4.17;1.90;;;;;;;10.28;100.00;98374.22;4184961;28;20665;-85
2023/11/16 01:33:59;;;;;;;4.87;2.07;;;;;;;10.38;100.00;98388.38;4153606;28;21444;-85
2023/11/16 01:36:03;;;;;;;4.23;2.17;;;;;;;10.40;99.85;98391.72;4181503;28;20632;-85
2023/11/16 01:38:06;;;;;;;4.83;2.03;;;;;;;10.39;100.00;98396.09;4153018;28;21206;-85
2023/11/16 01:40:10;;;;;;;3.90;1.80;;;;;;;10.37;100.00;98390.16;4176050;28;20638;-85
2023/11/16 01:42:13;;;;;;;3.80;2.17;;;;;;;10.39;100.00;98385.69;4157770;28;20613;-85
2023/11/16 01:44:18;;;;;;;4.30;2.50;;;;;;;10.44;100.00;98388.00;4171859;28;20683;-85
2023/11/16 01:46:21;;;;;;;4.13;2.47;;;;;;;10.50;100.00;98390.22;4173447;28;20705;-85
2023/11/16 01:48:24;;;;;;;4.40;2.80;;;;;;;10.54;100.00;98391.66;4182341;28;21028;-85
2023/11/16 01:50:28;;;;;;;8.30;2.60;;;;;;;10.59;100.00;98390.47;4167119;28;20624;-85
2023/11/16 01:52:31;;;;;;;5.97;2.90;;;;;;;10.63;100.00;98404.13;4156189;28;20670;-84
2023/11/16 01:54:35;;;;;;;4.37;2.17;;;;;;;10.67;100.00;98403.00;4151524;28;20622;-85
2023/11/16 01:56:39;;;;;;;4.00;1.83;;;;;;;10.70;100.00;98402.81;4179694;28;20661;-85
2023/11/16 01:58:45;;;;;;;5.47;2.20;;;;;;;10.72;100.00;98400.94;4158471;28;20716;-85
2023/11/16 02:00:49;;;;;;;5.50;2.23;;;;;;;10.72;99.72;98419.19;4157777;28;20614;-85
2023/11/16 02:02:57;;;;;;;4.23;2.10;;;;;;;10.67;100.00;98414.28;4163231;28;20681;-84
2023/11/16 02:05:02;;;;;;;4.50;2.20;;;;;;;10.67;100.00;98416.06;4158760;28;21151;-85
2023/11/16 02:07:07;;;;;;;3.57;1.80;;;;;;;10.63;100.00;98412.81;4190656;28;20653;-85
2023/11/16 02:09:13;;;;;;;4.60;1.60;;;;;;;10.61;100.00;98416.44;4155161;28;20740;-86
2023/11/16 02:11:16;;;;;;;8.13;1.50;;;;;;;10.58;100.00;98414.03;4169991;28;20685;-85
2023/11/16 02:13:23;;;;;;;4.60;2.07;;;;;;;10.54;100.00;98412.53;4153589;28;20617;-85
2023/11/16 02:15:27;;;;;;;4.60;1.90;;;;;;;10.50;100.00;98411.91;4150927;28;20630;-86
2023/11/16 02:17:35;;;;;;;3.80;1.50;;;;;;;10.49;99.69;98415.47;4159047;28;20625;-84
2023/11/16 02:19:40;;;;;;;5.30;1.70;;;;;;;10.44;100.00;98408.84;4167006;28;20631;-85
2023/11/16 02:21:45;;;;;;;6.57;2.30;;;;;;;10.44;99.86;98401.03;4175246;28;20617;-84
2023/11/16 02:23:50;;;;;;;2.57;1.40;;;;;;;10.45;100.00;98405.31;4175652;28;20632;-84
2023/11/16 02:25:56;;;;;;;2.53;1.23;;;;;;;10.46;99.80;98406.97;4170845;28;20653;-86
2023/11/16 02:27:58;;;;;;;2.57;1.30;;;;;;;10.48;100.00;98407.75;4169543;28;20660;-86
2023/11/16 02:30:01;;;;;;;3.87;1.53;;;;;;;10.47;100.00;98401.66;4171566;28;20668;-85
2023/11/16 02:32:06;;;;;;;5.50;1.60;;;;;;;10.49;100.00;98404.19;4168166;28;20684;-85
2023/11/16 02:34:08;;;;;;;5.90;1.63;;;;;;;10.52;100.00;98401.38;4172158;28;20730;-85
2023/11/16 02:36:11;;;;;;;2.23;1.40;;;;;;;10.52;100.00;98398.75;4186606;28;21074;-85
2023/11/16 02:38:16;;;;;;;2.73;1.27;;;;;;;10.52;100.00;98393.56;4169261;28;20692;-85
2023/11/16 02:40:21;;;;;;;3.13;1.40;;;;;;;10.56;100.00;98405.47;4160273;28;20633;-85
2023/11/16 02:42:24;;;;;;;4.80;1.40;;;;;;;10.57;100.00;98396.69;4175284;28;20682;-85
2023/11/16 02:44:30;;;;;;;5.10;1.40;;;;;;;10.60;100.00;98391.28;4159883;28;21133;-86
2023/11/16 02:46:33;;;;;;;3.27;1.60;;;;;;;10.58;100.00;98388.78;4172146;28;21288;-85
2023/11/16 02:48:36;;;;;;;3.53;1.30;;;;;;;10.57;100.00;98386.25;4153986;28;20662;-85
2023/11/16 02:50:39;;;;;;;3.47;1.80;;;;;;;10.56;100.00;98392.44;4173649;28;21294;-85
2023/11/16 02:52:43;;;;;;;3.83;1.60;;;;;;;10.58;100.00;98399.22;4154505;28;20681;-86
2023/11/16 02:54:47;;;;;;;3.90;1.73;;;;;;;10.58;100.00;98395.78;4186936;28;20727;-86
2023/11/16 02:56:50;;;;;;;4.60;1.80;;;;;;;10.60;100.00;98388.69;4156143;28;20614;-85
2023/11/16 02:58:54;;;;;;;3.23;1.50;;;;;;;10.62;100.00;98392.03;4154409;28;20622;-85
2023/11/16 03:00:57;;;;;;;3.57;1.60;;;;;;;10.63;100.00;98381.53;4161326;28;20696;-85
2023/11/16 03:03:02;;;;;;;4.27;1.70;;;;;;;10.63;100.00;98381.53;4154363;28;20672;-86
2023/11/16 03:05:10;;;;;;;3.20;1.70;;;;;;;10.61;100.00;98382.53;4182439;28;20619;-85
2023/11/16 03:07:13;;;;;;;3.47;1.70;;;;;;;10.61;100.00;98372.09;4155129;28;21218;-86
2023/11/16 03:09:34;;;;;;;4.70;1.93;;;;;;;10.61;99.96;98370.31;4157515;28;20691;-85
2023/11/16 03:11:37;;;;;;;3.33;1.60;;;;;;;10.61;100.00;98362.50;4155237;28;21444;-85
2023/11/16 03:13:42;;;;;;;4.70;1.80;;;;;;;10.60;100.00;98363.47;4168934;28;20624;-85
2023/11/16 03:15:47;;;;;;;4.33;1.60;;;;;;;10.58;100.00;98356.66;4155862;28;20660;-85
2023/11/16 03:17:51;;;;;;;4.60;1.63;;;;;;;10.59;99.88;98358.34;4154051;28;21202;-86
2023/11/16 03:19:53;;;;;;;3.23;1.50;;;;;;;10.57;99.96;98362.78;4166430;28;20659;-86
2023/11/16 03:21:57;;;;;;;2.53;1.40;;;;;;;10.58;100.00;98364.47;4154865;28;20680;-85
2023/11/16 03:24:01;;;;;;;4.23;1.63;;;;;;;10.57;100.00;98355.81;4186290;28;20662;-86
2023/11/16 03:26:05;;;;;;;3.70;1.97;;;;;;;10.57;100.00;98345.41;4167014;28;20636;-85
2023/11/16 03:28:09;;;;;;;5.23;2.10;;;;;;;10.57;100.00;98344.53;4170814;28;21045;-85
2023/11/16 03:30:16;;;;;;;4.00;2.20;;;;;;;10.58;100.00;98347.03;4175309;28;20620;-85
2023/11/16 03:32:20;;;;;;;3.60;1.87;;;;;;;10.58;100.00;98344.44;4154283;28;21479;-86
2023/11/16 03:34:22;;;;;;;4.10;2.10;;;;;;;10.56;100.00;98337.66;4153082;28;20685;-85
2023/11/16 03:36:26;;;;;;;5.33;2.00;;;;;;;10.53;100.00;98330.03;4167955;28;20624;-85
2023/11/16 03:38:30;;;;;;;2.87;1.70;;;;;;;10.50;100.00;98331.06;4167146;28;20632;-86
2023/11/16 03:40:33;;;;;;;6.10;1.93;;;;;;;10.50;100.00;98322.41;4185283;28;20629;-85
2023/11/16 03:42:36;;;;;;;3.13;1.53;;;;;;;10.48;100.00;98312.09;4168806;28;20633;-86
2023/11/16 03:44:40;;;;;;;3.10;1.80;;;;;;;10.47;100.00;98313.00;4152697;28;21241;-86
2023/11/16 03:46:44;;;;;;;4.00;2.10;;;;;;;10.47;100.00;98317.41;4186200;28;20624;-85
2023/11/16 03:48:47;;;;;;;4.87;2.93;;;;;;;10.43;100.00;98315.91;4156346;28;20708;-85
2023/11/16 03:50:52;;;;;;;4.00;2.80;;;;;;;10.37;100.00;98303.28;4165536;28;20637;-85
2023/11/16 03:52:55;;;;;;;4.20;2.07;;;;;;;10.31;100.00;98295.84;4182178;28;20666;-86
2023/11/16 03:54:58;;;;;;;3.77;1.97;;;;;;;10.30;100.00;98296.78;4154912;28;20992;-85
2023/11/16 03:57:01;;;;;;;5.10;1.97;;;;;;;10.34;100.00;98298.25;4153110;28;20650;-85
2023/11/16 03:59:05;;;;;;;2.90;2.20;;;;;;;10.33;100.00;98300.03;4158327;28;20652;-86
2023/11/16 04:01:08;;;;;;;2.47;1.80;;;;;;;10.32;100.00;98314.00;4170599;28;20632;-85
2023/11/16 04:03:13;;;;;;;3.80;2.10;;;;;;;10.33;100.00;98312.25;4154238;28;20629;-85
2023/11/16 04:05:18;;;;;;;4.50;1.80;;;;;;;10.33;100.00;98320.88;4174277;28;20659;-85
2023/11/16 04:07:21;;;;;;;4.47;2.17;;;;;;;10.33;100.00;98320.06;4168244;28;20636;-85
2023/11/16 04:09:24;;;;;;;5.23;2.10;;;;;;;10.34;100.00;98326.94;4167506;28;20754;-85
2023/11/16 04:11:29;;;;;;;4.90;1.90;;;;;;;10.32;100.00;98332.22;4171608;28;20632;-86
2023/11/16 04:13:32;;;;;;;4.97;1.80;;;;;;;10.32;100.00;98326.19;4154872;28;20633;-85
2023/11/16 04:15:35;;;;;;;3.03;1.50;;;;;;;10.31;100.00;98321.91;4172116;28;20628;-86
2023/11/16 04:17:39;;;;;;;3.57;1.83;;;;;;;10.32;100.00;98321.81;4158581;28;21219;-86
2023/11/16 04:19:43;;;;;;;5.97;2.47;;;;;;;10.34;100.00;98316.50;4184086;28;20623;-85
2023/11/16 04:21:46;;;;;;;3.97;1.80;;;;;;;10.36;100.00;98325.06;4155071;28;21226;-85
2023/11/16 04:23:52;;;;;;;4.90;2.10;;;;;;;10.35;100.00;98315.56;4173806;28;20726;-85
2023/11/16 04:25:54;;;;;;;4.40;2.00;;;;;;;10.37;100.00;98316.31;4170789;28;20625;-86
2023/11/16 04:28:01;;;;;;;3.70;2.10;;;;;;;10.38;100.00;98312.78;4188424;28;20616;-85
2023/11/16 04:30:06;;;;;;;4.43;1.90;;;;;;;10.38;100.00;98311.00;4173765;28;20644;-85
2023/11/16 04:32:11;;;;;;;3.40;1.87;;;;;;;10.40;100.00;98316.09;4167776;28;21579;-85
2023/11/16 04:34:13;;;;;;;6.17;2.00;;;;;;;10.40;100.00;98311.75;4172708;28;20633;-85
2023/11/16 04:36:23;;;;;;;3.03;1.80;;;;;;;10.42;100.00;98306.44;4162201;28;20632;-85
2023/11/16 04:38:27;;;;;;;7.20;2.30;;;;;;;10.40;100.00;98306.53;4175404;28;20632;-85
2023/11/16 04:40:30;;;;;;;6.33;2.23;;;;;;;10.42;100.00;98306.44;4171792;28;20726;-86
2023/11/16 04:42:33;;;;;;;3.97;2.07;;;;;;;10.42;100.00;98315.09;4162586;28;20981;-85
2023/11/16 04:44:36;;;;;;;4.60;1.87;;;;;;;10.42;100.00;98306.44;4175840;28;21304;-85
2023/11/16 04:46:45;;;;;;;3.97;1.80;;;;;;;10.43;100.00;98300.28;4169001;28;20683;-85
2023/11/16 04:48:49;;;;;;;3.17;1.67;;;;;;;10.47;100.00;98301.75;4161139;28;20657;-85
2023/11/16 04:50:52;;;;;;;2.83;1.70;;;;;;;10.48;100.00;98308.66;4165130;28;20611;-85
2023/11/16 04:52:57;;;;;;;5.60;1.90;;;;;;;10.48;100.00;98308.66;4178473;28;20628;-85
2023/11/16 04:55:00;;;;;;;2.57;1.60;;;;;;;10.48;100.00;98308.66;4168131;28;20717;-85
2023/11/16 04:57:04;;;;;;;3.60;2.00;;;;;;;10.46;100.00;98303.53;4149338;28;20732;-86
2023/11/16 04:59:06;;;;;;;3.47;1.97;;;;;;;10.47;100.00;98309.56;4181759;28;20734;-84
2023/11/16 05:01:14;;;;;;;5.93;1.73;;;;;;;10.46;100.00;98300.06;4180995;28;21353;-85
2023/11/16 05:03:21;;;;;;;3.33;1.67;;;;;;;10.45;100.00;98303.63;4157424;28;20741;-85
2023/11/16 05:05:24;;;;;;;3.50;1.70;;;;;;;10.41;100.00;98302.97;4187907;28;20645;-85
2023/11/16 05:07:28;;;;;;;6.83;1.77;;;;;;;10.40;100.00;98300.47;4169222;28;20634;-84
2023/11/16 05:09:32;;;;;;;3.47;1.50;;;;;;;10.40;100.00;98297.84;4186611;28;20656;-85
2023/11/16 05:11:35;;;;;;;2.80;1.60;;;;;;;10.41;100.00;98296.94;4183299;28;20646;-85
2023/11/16 05:13:39;;;;;;;2.43;1.70;;;;;;;10.40;100.00;98284.81;4153893;28;21233;-84
2023/11/16 05:15:44;;;;;;;4.70;1.80;;;;;;;10.40;100.00;98279.59;4150073;28;21449;-86
2023/11/16 05:17:48;;;;;;;5.23;2.00;;;;;;;10.40;99.69;98277.88;4168940;28;20625;-85
2023/11/16 05:19:51;;;;;;;4.63;2.40;;;;;;;10.42;100.00;98272.53;4156254;28;20605;-85
2023/11/16 05:21:54;;;;;;;4.00;2.23;;;;;;;10.41;100.00;98278.69;4170851;28;20667;-84
2023/11/16 05:23:58;;;;;;;3.33;2.27;;;;;;;10.41;99.65;98286.50;4174583;28;20681;-84
2023/11/16 05:26:02;;;;;;;5.70;2.60;;;;;;;10.41;99.98;98279.50;4169567;28;20657;-85
2023/11/16 05:28:06;;;;;;;5.00;2.63;;;;;;;10.44;99.79;98286.31;4173979;28;21014;-85
2023/11/16 05:30:11;;;;;;;3.87;2.60;;;;;;;10.44;100.00;98284.53;4171082;28;20697;-85
2023/11/16 05:32:14;;;;;;;2.80;2.17;;;;;;;10.46;100.00;98276.59;4177495;28;20656;-86
2023/11/16 05:34:18;;;;;;;4.77;2.27;;;;;;;10.46;100.00;98287.03;4177121;28;20697;-85
2023/11/16 05:36:21;;;;;;;3.80;2.30;;;;;;;10.45;99.35;98282.78;4191529;28;20629;-85
2023/11/16 05:38:28;;;;;;;2.90;2.10;;;;;;;10.43;99.96;98275.06;4187814;28;20636;-86
2023/11/16 05:40:30;;;;;;;4.37;3.33;;;;;;;10.41;100.00;98270.88;4172859;28;20617;-85
2023/11/16 05:42:34;;;;;;;4.27;2.60;;;;;;;10.39;100.00;98268.34;4168998;28;20632;-85
2023/11/16 05:44:37;;;;;;;7.17;2.77;;;;;;;10.38;100.00;98265.84;4177925;28;20628;-84
2023/11/16 05:46:40;;;;;;;3.80;2.20;;;;;;;10.39;100.00;98254.50;4172944;28;20666;-85
2023/11/16 05:48:43;;;;;;;6.43;2.90;;;;;;;10.37;100.00;98238.09;4158985;28;20745;-84
2023/11/16 05:50:46;;;;;;;9.10;3.40;;;;;;;10.38;100.00;98252.81;4174384;28;20786;-84
2023/11/16 05:52:49;;;;;;;3.57;3.17;;;;;;;10.36;100.00;98257.31;4186627;28;20670;-85
2023/11/16 05:54:52;;;;;;;3.87;2.60;;;;;;;10.37;100.00;98251.13;4157357;28;20706;-85
2023/11/16 05:56:55;;;;;;;3.77;2.53;;;;;;;10.37;100.00;98248.53;4159704;28;20614;-85
2023/11/16 05:59:00;;;;;;;3.70;2.10;;;;;;;10.36;100.00;98249.47;4169958;28;20957;-85
2023/11/16 06:01:03;;;;;;;5.10;2.50;;;;;;;10.38;100.00;98250.19;4181042;28;20679;-84
2023/11/16 06:03:08;;;;;;;4.17;2.50;;;;;;;10.40;100.00;98250.94;4173032;28;20760;-85
2023/11/16 06:05:11;;;;;;;6.53;2.50;;;;;;;10.39;99.66;98242.28;4185400;28;20623;-85
2023/11/16 06:07:18;;;;;;;4.50;2.43;;;;;;;10.42;99.59;98247.31;4186410;28;20686;-84
2023/11/16 06:09:21;;;;;;;4.90;2.07;;;;;;;10.41;100.00;98235.19;4185469;28;20651;-86
2023/11/16 06:11:23;;;;;;;4.17;2.70;;;;;;;10.42;100.00;98225.63;4168579;28;20686;-86
2023/11/16 06:13:27;;;;;;;3.60;2.70;;;;;;;10.40;100.00;98228.31;4173846;28;20636;-85
2023/11/16 06:15:31;;;;;;;4.37;2.20;;;;;;;10.40;100.00;98223.13;4171983;28;20633;-85
2023/11/16 06:17:33;;;;;;;4.00;1.97;;;;;;;10.39;100.00;98221.44;4156697;28;20768;-84
2023/11/16 06:19:37;;;;;;;4.60;2.40;;;;;;;10.39;100.00;98208.41;4155113;28;20683;-85
2023/11/16 06:21:41;;;;;;;3.97;2.30;;;;;;;10.39;100.00;98213.59;4170906;28;20719;-85
2023/11/16 06:23:44;;;;;;;7.73;2.83;;;;;;;10.39;100.00;98212.78;4190680;28;20632;-84
2023/11/16 06:25:47;;;;;;;4.33;2.27;;;;;;;10.38;100.00;98211.09;4187551;28;21122;-84
2023/11/16 06:27:52;;;;;;;4.50;2.00;;;;;;;10.38;100.00;98209.31;4189677;28;20669;-84
2023/11/16 06:29:54;;;;;;;3.47;2.20;;;;;;;10.39;100.00;98199.75;4161893;28;20764;-84
2023/11/16 06:31:58;;;;;;;4.10;2.40;;;;;;;10.39;100.00;98194.53;4169290;28;21061;-84
2023/11/16 06:34:02;;;;;;;4.30;2.77;;;;;;;10.36;100.00;98205.16;4171536;28;20668;-84
2023/11/16 06:36:05;;;;;;;4.50;2.23;;;;;;;10.34;100.00;98207.88;4149770;28;20642;-84
2023/11/16 06:38:09;;;;;;;6.90;2.83;;;;;;;10.35;99.77;98206.09;4168039;28;20640;-85
2023/11/16 06:40:13;;;;;;;4.30;2.77;;;;;;;10.37;100.00;98209.41;4169123;28;20626;-85
2023/11/16 06:42:16;;;;;;;5.00;2.47;;;;;;;10.37;100.00;98210.28;4173025;28;20718;-85
2023/11/16 06:44:19;;;;;;;4.90;2.77;;;;;;;10.39;100.00;98207.56;4154473;28;20653;-85
2023/11/16 06:46:22;;;;;;;4.23;2.40;;;;;;;10.38;100.00;98206.72;4171974;28;20632;-85
2023/11/16 06:48:27;;;;;;;4.67;2.93;;;;;;;10.38;100.00;98205.88;4181852;28;20750;-85
2023/11/16 06:50:34;;;;;;;4.90;3.20;;;;;;;10.37;100.00;98214.63;4160097;28;20645;-85
2023/11/16 06:52:37;;;;;;;4.40;2.53;;;;;;;10.36;100.00;98205.16;4184549;28;20711;-84
2023/11/16 06:54:41;;;;;;;8.90;2.97;;;;;;;10.37;100.00;98201.59;4166044;28;21072;-84
2023/11/16 06:56:45;;;;;;;3.80;2.50;;;;;;;10.38;100.00;98198.06;4184180;28;20961;-85
2023/11/16 06:58:48;;;;;;;5.87;2.40;;;;;;;10.39;100.00;98186.72;4178874;28;20666;-84
2023/11/16 07:00:54;;;;;;;4.50;2.30;;;;;;;10.39;99.78;98187.53;4182486;28;20721;-86
2023/11/16 07:02:58;;;;;;;5.23;2.90;;;;;;;10.38;99.63;98188.47;4181397;28;20631;-84
2023/11/16 07:05:03;;;;;;;8.30;4.77;;;;;;;10.35;100.00;98187.84;4186432;28;20697;-85
2023/11/16 07:07:05;;;;;;;9.63;5.87;;;;;;;10.33;100.00;98194.94;4182425;28;20664;-84
2023/11/16 07:09:11;;;;;;;5.40;4.00;;;;;;;10.34;100.00;98196.59;4185660;28;20631;-84
2023/11/16 07:11:15;;;;;;;8.33;4.10;;;;;;;10.34;100.00;98193.97;4156479;28;21451;-84
2023/11/16 07:13:20;;;;;;;6.90;4.63;;;;;;;10.33;100.00;98200.97;4165158;28;20644;-84
2023/11/16 07:15:23;;;;;;;5.83;4.73;;;;;;;10.34;100.00;98201.81;4185288;28;20673;-84
2023/11/16 07:17:26;;;;;;;8.00;4.60;;;;;;;10.33;100.00;98189.72;4183953;28;20635;-85
2023/11/16 07:19:30;;;;;;;8.70;5.50;;;;;;;10.35;100.00;98190.44;4154745;28;21091;-84
2023/11/16 07:21:34;;;;;;;6.57;4.57;;;;;;;10.36;100.00;98184.31;4187060;28;21261;-83
2023/11/16 07:23:38;;;;;;;10.10;7.50;;;;;;;10.39;100.00;98189.31;4174128;28;20636;-83
2023/11/16 07:25:43;;;;;;;13.53;7.97;;;;;;;10.42;100.00;98181.28;4169477;28;20693;-84
2023/11/16 07:27:46;;;;;;;8.50;6.87;;;;;;;10.45;100.00;98170.66;4166758;28;20723;-84
2023/11/16 07:29:52;;;;;;;8.23;5.83;;;;;;;10.47;100.00;98167.00;4147322;28;20965;-85
2023/11/16 07:31:55;;;;;;;8.10;5.00;;;;;;;10.49;100.00;98174.72;4175765;28;21276;-86
2023/11/16 07:34:00;;;;;;;7.30;4.87;;;;;;;10.46;100.00;98167.09;4186736;28;21265;-82
2023/11/16 07:36:04;;;;;;;13.73;8.40;;;;;;;10.44;100.00;98166.38;4185333;28;20657;-84
2023/11/16 07:38:09;;;;;;;53.93;31.60;;;;;;;10.43;100.00;98167.31;4173051;28;20727;-84
2023/11/16 07:40:11;;;;;;;31.00;19.23;;;;;;;10.43;100.00;98164.69;4187255;28;20611;-83
2023/11/16 07:42:15;;;;;;;6.77;5.20;;;;;;;10.43;100.00;98162.94;4157216;28;21082;-83
2023/11/16 07:44:18;;;;;;;6.90;4.57;;;;;;;10.44;100.00;98166.38;4152447;28;20652;-84
2023/11/16 07:46:20;;;;;;;9.30;4.75;;;;;;;10.45;100.00;98168.88;4155356;28;20732;-84
2023/11/16 07:48:28;;;;;;;25.90;18.53;;;;;;;10.49;100.00;98170.38;4157035;28;20216;-84
2023/11/16 07:50:32;;;;;;;8.83;6.67;;;;;;;10.53;100.00;98165.75;4184607;28;20650;-86
2023/11/16 07:52:42;;;;;;;6.53;4.70;;;;;;;10.56;100.00;98166.38;4167940;28;20727;-85
2023/11/16 07:54:47;;;;;;;8.13;6.27;;;;;;;10.60;100.00;98160.03;4175365;28;20700;-84
2023/11/16 07:56:52;;;;;;;7.40;5.50;;;;;;;10.63;100.00;98146.78;4188659;28;20639;-84
2023/11/16 07:58:59;;;;;;;6.37;4.37;;;;;;;10.69;100.00;98150.75;4169965;28;20690;-83
2023/11/16 08:01:11;;;;;;;5.47;4.93;;;;;;;10.70;100.00;98152.41;4183406;28;20630;-84
2023/11/16 08:05:37;;;;;;;4.50;2.43;;;;;;;10.73;100.00;98137.38;4164146;28;20701;-84
2023/11/16 08:07:42;;;;;;;6.50;2.60;;;;;;;10.76;99.83;98136.34;4153285;28;20672;-85
2023/11/16 08:09:46;;;;;;;4.17;2.77;;;;;;;10.75;100.00;98134.69;4184832;28;20620;-84
2023/11/16 08:11:54;;;;;;;6.20;2.90;;;;;;;10.75;100.00;98132.06;4183587;28;20656;-84
2023/11/16 08:13:57;;;;;;;3.00;2.10;;;;;;;10.78;100.00;98129.25;4179743;28;20629;-84
2023/11/16 08:16:04;;;;;;;5.03;2.67;;;;;;;10.77;100.00;98123.22;4190390;28;20751;-84
2023/11/16 08:18:08;;;;;;;3.77;2.90;;;;;;;10.78;99.39;98129.25;4174115;28;21317;-84
2023/11/16 08:20:12;;;;;;;6.70;2.67;;;;;;;10.79;100.00;98129.16;4167808;28;20629;-84
2023/11/16 08:22:15;;;;;;;3.73;2.67;;;;;;;10.81;99.65;98120.28;4188951;28;21262;-84
2023/11/16 08:24:19;;;;;;;3.60;2.67;;;;;;;10.86;100.00;98122.56;4187051;28;20620;-84
2023/11/16 08:26:21;;;;;;;6.30;2.77;;;;;;;10.88;100.00;98116.31;4159305;28;20656;-84
2023/11/16 08:28:28;;;;;;;6.60;2.90;;;;;;;10.91;100.00;98117.88;4176505;28;20682;-85
2023/11/16 08:30:31;;;;;;;5.00;3.00;;;;;;;10.93;100.00;98102.94;4161233;28;20651;-86
2023/11/16 08:32:35;;;;;;;8.83;5.50;;;;;;;10.97;100.00;98109.63;4162207;28;20610;-84
2023/11/16 08:34:38;;;;;;;6.83;5.63;;;;;;;10.99;100.00;98105.97;4161831;28;20704;-84
2023/11/16 08:36:42;;;;;;;12.57;8.90;;;;;;;11.01;100.00;98096.25;4186961;28;21258;-84
2023/11/16 08:38:46;;;;;;;12.93;8.40;;;;;;;11.02;100.00;98086.63;4182970;28;20626;-84
2023/11/16 08:40:49;;;;;;;16.53;9.50;;;;;;;11.05;100.00;98092.50;4187446;28;20944;-83
2023/11/16 08:42:56;;;;;;;21.83;13.60;;;;;;;11.07;100.00;98093.22;4158003;28;20628;-83
2023/11/16 08:45:02;;;;;;;9.20;6.00;;;;;;;11.06;99.37;98091.53;4185764;28;20643;-85
2023/11/16 08:47:14;;;;;;;7.00;5.00;;;;;;;11.09;100.00;98088.72;4169414;28;20973;-86
2023/11/16 08:49:17;;;;;;;7.20;4.67;;;;;;;11.14;100.00;98085.78;4186099;28;20644;-86
2023/11/16 08:51:22;;;;;;;4.83;3.40;;;;;;;11.12;99.60;98085.88;4174506;28;20661;-86
2023/11/16 08:53:32;;;;;;;5.63;3.40;;;;;;;11.17;100.00;98089.03;4184042;28;21058;-85
2023/11/16 08:55:35;;;;;;;5.70;4.20;;;;;;;11.21;99.91;98084.41;4184060;28;20735;-86
2023/11/16 08:57:39;;;;;;;5.20;3.93;;;;;;;11.27;100.00;98076.16;4186628;28;21486;-86
2023/11/16 08:59:59;;;;;;;6.50;4.63;;;;;;;11.31;100.00;98075.81;4184201;28;20621;-86
2023/11/16 09:02:06;;;;;;;4.00;2.50;;;;;;;11.35;99.82;98066.81;4184641;28;20658;-86
2023/11/16 09:04:12;;;;;;;6.30;3.50;;;;;;;11.39;100.00;98065.66;4156654;28;20636;-86
2023/11/16 09:06:21;;;;;;;5.80;2.60;;;;;;;11.47;99.26;98071.19;4175613;28;21000;-86
2023/11/16 09:08:24;;;;;;;6.13;2.77;;;;;;;11.51;98.95;98064.81;4188238;28;20649;-86
2023/11/16 09:10:27;;;;;;;4.30;3.10;;;;;;;11.58;98.89;98066.03;4167108;28;20633;-86
2023/11/16 09:12:31;;;;;;;4.23;2.40;;;;;;;11.64;98.53;98068.19;4169376;28;20653;-86
2023/11/16 09:14:34;;;;;;;4.80;2.60;;;;;;;11.67;97.73;98065.38;4185677;28;20621;-86
2023/11/16 09:16:39;;;;;;;4.13;2.03;;;;;;;11.67;97.73;98066.19;4183991;28;20652;-86
2023/11/16 09:18:43;;;;;;;5.00;2.20;;;;;;;11.70;97.81;98065.13;4181893;28;20636;-86
2023/11/16 09:20:49;;;;;;;4.63;2.30;;;;;;;11.72;97.54;98063.25;4179146;28;20693;-86
2023/11/16 09:22:54;;;;;;;4.47;2.13;;;;;;;11.76;96.82;98052.47;4166841;28;20702;-86
2023/11/16 09:25:00;;;;;;;6.07;2.70;;;;;;;11.78;95.54;98059.22;4188207;28;20604;-87
2023/11/16 09:27:04;;;;;;;5.07;2.70;;;;;;;11.79;95.63;98055.66;4172716;28;20631;-86
2023/11/16 09:29:07;;;;;;;7.00;2.40;;;;;;;11.78;94.83;98054.00;4161115;28;20630;-86
2023/11/16 09:31:12;;;;;;;5.10;2.47;;;;;;;11.79;94.89;98044.38;4184175;28;21113;-86
2023/11/16 09:33:14;;;;;;;6.00;2.50;;;;;;;11.81;95.27;98043.31;4183600;28;20633;-85
2023/11/16 09:35:21;;;;;;;7.83;3.20;;;;;;;11.82;94.86;98031.09;4167874;28;20653;-86
2023/11/16 09:37:26;;;;;;;3.77;2.80;;;;;;;11.82;95.15;98029.31;4186888;28;21202;-86
2023/11/16 09:39:29;;;;;;;8.20;4.73;;;;;;;11.85;94.00;98020.41;4168292;28;20625;-85
2023/11/16 09:41:33;;;;;;;23.13;5.27;;;;;;;11.86;95.36;98020.31;4169723;28;21191;-86